EDDS/STR METAR and TAF weather

Enter ICAO airport designator
Station Type Date Time Source
EDDS METAR 2019/10/21 23:20 UTC NOAA

EDDS 212320Z VRB01KT 9999 -RA SCT015 BKN018 12/11 Q1023


Station Type Date Time Source
EDDS Decoded METAR 2019/10/21 23:20 UTC NOAA

Stuttgart-Echterdingen, Germany (EDDS) 48-41N 009-13E 391M
Oct 21, 2019 - 07:20 PM EDT / 2019.10.21 2320 UTC
Wind: Variable at 1 MPH (1 KT):0
Visibility: greater than 7 mile(s):0
Sky conditions: mostly cloudy
Weather: light rain
Temperature: 53 F (12 C)
Dew Point: 51 F (11 C)
Relative Humidity: 93%
Pressure (altimeter): 30.21 in. Hg (1023 hPa)
ob: EDDS 212320Z VRB01KT 9999 -RA SCT015 BKN018 12/11 Q1023
cycle: 23

Station Type Date Time Source
EDDS TAF 2019/10/21 18:11 UTC NOAA

TAF
AMD EDDS 211803Z 2118/2218 33004KT 9999 SCT020 BKN045 PROB30
TEMPO 2118/2122 RA
TEMPO 2119/2122 4000 BKN012
BECMG 2122/2201 4000 BR BKN006
TEMPO 2203/2208 1000 BCFG BKN002
BECMG 2208/2211 03005KT 9999 FEW010 BKN025

Example: see airport list